createdAt,value
2023-01-20T15:04:21.884Z,3.80
2023-01-20T15:06:57.730Z,3.70
2023-01-20T15:09:32.911Z,3.60
2023-01-20T15:12:39.436Z,3.40
2023-01-20T15:15:23.415Z,3.30
2023-01-20T15:18:11.383Z,3.30
2023-01-20T15:20:41.164Z,3.30
2023-01-20T15:23:38.803Z,3.20
2023-01-20T15:26:17.415Z,3.20
2023-01-20T15:28:44.970Z,3.20
2023-01-20T15:31:16.030Z,3.20
2023-01-20T15:33:43.672Z,3.10
2023-01-20T15:36:27.164Z,3.10
2023-01-20T15:38:53.898Z,3.10
2023-01-20T15:41:20.985Z,3.20
2023-01-20T15:43:49.134Z,3.10
2023-01-20T15:46:17.300Z,3.10
2023-01-20T15:48:45.668Z,3.00
2023-01-20T15:51:17.908Z,3.00
2023-01-20T15:53:45.593Z,3.00
2023-01-20T15:56:28.695Z,3.10
2023-01-20T15:58:55.828Z,3.00
2023-01-20T16:01:25.093Z,3.00
2023-01-20T16:03:52.866Z,2.90
2023-01-20T16:06:22.245Z,2.90
2023-01-20T16:08:50.471Z,2.90
2023-01-20T16:11:19.109Z,2.90
2023-01-20T16:13:46.137Z,2.80
2023-01-20T16:16:15.968Z,2.80
2023-01-20T16:18:42.969Z,2.80
2023-01-20T16:21:18.099Z,2.70
2023-01-20T16:23:45.255Z,2.80
2023-01-20T16:26:25.195Z,2.70
2023-01-20T16:28:54.109Z,2.70
2023-01-20T16:31:22.087Z,2.60
2023-01-20T16:33:48.895Z,2.50
2023-01-20T16:36:17.938Z,2.50
2023-01-20T16:38:45.594Z,2.40
2023-01-20T16:41:30.800Z,2.30
2023-01-20T16:43:58.507Z,2.30
2023-01-20T16:46:31.607Z,2.20
2023-01-20T16:49:00.823Z,2.10
2023-01-20T16:51:28.960Z,2.10
2023-01-20T16:53:56.826Z,2.00
2023-01-20T16:56:28.992Z,2.10
2023-01-20T16:59:01.352Z,1.90
2023-01-20T17:01:29.169Z,1.90
2023-01-20T17:03:58.637Z,1.80
2023-01-20T17:06:28.646Z,1.80
2023-01-20T17:08:57.398Z,1.70
2023-01-20T17:11:31.583Z,1.70
2023-01-20T17:14:00.430Z,1.70
2023-01-20T17:16:27.273Z,1.60
2023-01-20T17:18:56.217Z,1.60
2023-01-20T17:21:23.992Z,1.60
2023-01-20T17:23:56.437Z,1.50
2023-01-20T17:26:24.802Z,1.50
2023-01-20T17:28:59.044Z,1.60
2023-01-20T17:31:25.997Z,1.50
2023-01-20T17:33:52.776Z,1.40
2023-01-20T17:36:20.280Z,1.50
2023-01-20T17:38:47.224Z,1.50
2023-01-20T17:41:14.967Z,1.40
2023-01-20T17:43:45.819Z,1.40
2023-01-20T17:46:16.766Z,1.40
2023-01-20T17:48:44.512Z,1.30
2023-01-20T17:51:16.676Z,1.30
2023-01-20T17:53:43.689Z,1.20
2023-01-20T17:56:13.577Z,1.20
2023-01-20T17:58:41.686Z,1.20
2023-01-20T18:01:26.257Z,1.10
2023-01-20T18:03:54.908Z,1.10
2023-01-20T18:06:23.549Z,1.10
2023-01-20T18:08:52.451Z,1.00
2023-01-20T18:11:21.474Z,0.90
2023-01-20T18:13:49.975Z,0.90
2023-01-20T18:16:18.777Z,0.80
2023-01-20T18:18:46.673Z,0.80
2023-01-20T18:21:24.130Z,0.90
2023-01-20T18:23:51.822Z,0.80
2023-01-20T18:26:21.325Z,0.90
2023-01-20T18:28:48.727Z,0.80
2023-01-20T18:31:20.424Z,0.80
2023-01-20T18:33:49.181Z,0.80
2023-01-20T18:36:23.797Z,0.70
2023-01-20T18:38:51.954Z,0.70
2023-01-20T18:41:19.911Z,0.80
2023-01-20T18:43:47.616Z,0.80
2023-01-20T18:46:14.399Z,0.80
2023-01-20T18:48:44.751Z,0.70
2023-01-20T18:51:15.092Z,0.80
2023-01-20T18:53:43.552Z,0.80
2023-01-20T18:56:14.374Z,0.80
2023-01-20T18:58:49.572Z,0.70
2023-01-20T19:01:28.754Z,0.70
2023-01-20T19:03:56.903Z,0.70
2023-01-20T19:06:29.292Z,0.80
2023-01-20T19:08:57.523Z,0.70
2023-01-20T19:11:35.641Z,0.70
2023-01-20T19:14:03.012Z,0.70
2023-01-20T19:16:32.774Z,0.70
2023-01-20T19:19:02.219Z,0.70
2023-01-20T19:21:32.424Z,0.70
2023-01-20T19:24:01.557Z,0.60
2023-01-20T19:26:28.406Z,0.70
2023-01-20T19:28:58.057Z,0.70
2023-01-20T19:31:25.021Z,0.60
2023-01-20T19:33:52.406Z,0.60
2023-01-20T19:36:20.356Z,0.60
2023-01-20T19:38:47.463Z,0.60
2023-01-20T19:41:19.669Z,0.60
2023-01-20T19:43:46.751Z,0.60
2023-01-20T19:46:18.671Z,0.40
2023-01-20T19:48:45.844Z,0.50
2023-01-20T19:51:15.254Z,0.50
2023-01-20T19:53:43.941Z,0.60
2023-01-20T19:56:13.688Z,0.50
2023-01-20T19:58:41.729Z,0.50
2023-01-20T20:01:10.385Z,0.50
2023-01-20T20:03:37.745Z,0.40
2023-01-20T20:06:06.536Z,0.40
2023-01-20T20:08:36.115Z,0.40
2023-01-20T20:11:02.903Z,0.40
2023-01-20T20:13:29.662Z,0.40
2023-01-20T20:16:03.793Z,0.40
2023-01-20T20:18:30.817Z,0.40
2023-01-20T20:20:57.855Z,0.30
2023-01-20T20:23:25.436Z,0.30
2023-01-20T20:25:56.406Z,0.30
2023-01-20T20:28:27.707Z,0.20
2023-01-20T20:30:55.520Z,0.20
2023-01-20T20:33:25.195Z,0.20
2023-01-20T20:35:52.260Z,0.20
2023-01-20T20:38:18.975Z,0.20
2023-01-20T20:40:45.890Z,0.20
2023-01-20T20:43:12.650Z,0.20
2023-01-20T20:45:39.484Z,0.20
2023-01-20T20:48:06.383Z,0.10
2023-01-20T20:50:33.933Z,0.00
2023-01-20T20:53:00.716Z,0.10
2023-01-20T20:55:29.220Z,0.10
2023-01-20T20:57:56.442Z,0.20
2023-01-20T21:00:25.073Z,0.10
2023-01-20T21:02:51.814Z,0.20
2023-01-20T21:05:19.106Z,0.10
2023-01-20T21:07:46.047Z,0.10
2023-01-20T21:10:15.757Z,0.10
2023-01-20T21:12:43.887Z,0.10
2023-01-20T21:15:11.469Z,0.10
2023-01-20T21:17:39.296Z,0.00
2023-01-20T21:20:07.416Z,0.20
2023-01-20T21:22:34.266Z,0.10
2023-01-20T21:25:00.941Z,0.10
2023-01-20T21:27:27.804Z,0.00
2023-01-20T21:29:54.541Z,-0.10
2023-01-20T21:32:21.196Z,0.00
2023-01-20T21:34:47.943Z,0.00
2023-01-20T21:37:14.750Z,0.00
2023-01-20T21:39:41.415Z,0.00
2023-01-20T21:42:09.079Z,0.00
2023-01-20T21:44:36.453Z,0.00
2023-01-20T21:47:07.921Z,0.00
2023-01-20T21:49:53.390Z,0.00
2023-01-20T21:52:41.316Z,0.00
2023-01-20T21:55:15.939Z,-0.10
2023-01-20T21:57:43.783Z,0.00
2023-01-20T22:00:11.801Z,-0.10
2023-01-20T22:02:39.322Z,-0.10
2023-01-20T22:17:23.457Z,-0.10
2023-01-20T22:19:50.152Z,-0.20
2023-01-20T22:32:08.499Z,-0.30
2023-01-20T22:42:00.489Z,-0.30
2023-01-20T22:44:27.164Z,-0.30
2023-01-20T22:46:53.965Z,-0.30
2023-01-20T22:49:20.796Z,-0.30
2023-01-20T22:51:47.499Z,-0.30
2023-01-20T22:54:14.215Z,-0.40
2023-01-20T22:56:40.967Z,-0.40
2023-01-20T22:59:07.727Z,-0.40
2023-01-20T23:01:35.690Z,-0.50
2023-01-20T23:04:05.145Z,-0.50
2023-01-20T23:06:34.798Z,-0.50
2023-01-20T23:09:07.915Z,-0.50
2023-01-20T23:11:36.416Z,-0.50
2023-01-20T23:14:03.574Z,-0.50
2023-01-20T23:16:30.274Z,-0.50
2023-01-20T23:18:56.951Z,-0.50
2023-01-20T23:21:24.487Z,-0.50
2023-01-20T23:23:54.396Z,-0.50
2023-01-20T23:28:50.578Z,-0.60
2023-01-20T23:31:18.451Z,-0.60
2023-01-20T23:33:45.160Z,-0.60
2023-01-20T23:36:15.029Z,-0.60
2023-01-20T23:38:42.607Z,-0.60
2023-01-20T23:41:09.965Z,-0.60
2023-01-20T23:43:36.631Z,-0.70
2023-01-20T23:46:05.716Z,-0.60
2023-01-20T23:48:33.284Z,-0.70
2023-01-20T23:51:00.764Z,-0.70
2023-01-20T23:53:29.395Z,-0.80
2023-01-20T23:56:13.543Z,-0.80
